sensor_id;sensor_type;location;lat;lon;timestamp;P1;durP1;ratioP1;P2;durP2;ratioP2
67798;SDS011;54596;43.216;27.904;2023-12-20T00:01:02;68.45;;;44.38;;
67798;SDS011;54596;43.216;27.904;2023-12-20T00:03:27;71.20;;;47.35;;
67798;SDS011;54596;43.216;27.904;2023-12-20T00:05:53;78.70;;;53.10;;
67798;SDS011;54596;43.216;27.904;2023-12-20T00:08:19;89.13;;;62.65;;
67798;SDS011;54596;43.216;27.904;2023-12-20T00:10:44;100.80;;;73.07;;
67798;SDS011;54596;43.216;27.904;2023-12-20T00:13:10;103.13;;;73.15;;
67798;SDS011;54596;43.216;27.904;2023-12-20T00:15:36;101.47;;;73.45;;
67798;SDS011;54596;43.216;27.904;2023-12-20T00:18:01;106.45;;;75.30;;
67798;SDS011;54596;43.216;27.904;2023-12-20T00:20:27;102.32;;;74.75;;
67798;SDS011;54596;43.216;27.904;2023-12-20T00:22:55;98.22;;;75.10;;
67798;SDS011;54596;43.216;27.904;2023-12-20T00:25:22;103.32;;;77.13;;
67798;SDS011;54596;43.216;27.904;2023-12-20T00:27:48;103.65;;;76.00;;
67798;SDS011;54596;43.216;27.904;2023-12-20T00:30:14;95.20;;;72.70;;
67798;SDS011;54596;43.216;27.904;2023-12-20T00:32:39;88.22;;;64.55;;
67798;SDS011;54596;43.216;27.904;2023-12-20T00:35:11;87.53;;;63.53;;
67798;SDS011;54596;43.216;27.904;2023-12-20T00:37:37;79.40;;;59.00;;
67798;SDS011;54596;43.216;27.904;2023-12-20T00:40:03;70.55;;;49.88;;
67798;SDS011;54596;43.216;27.904;2023-12-20T00:42:29;70.45;;;49.00;;
67798;SDS011;54596;43.216;27.904;2023-12-20T00:44:55;66.82;;;45.90;;
67798;SDS011;54596;43.216;27.904;2023-12-20T00:47:20;59.22;;;42.65;;
67798;SDS011;54596;43.216;27.904;2023-12-20T00:49:47;61.85;;;41.50;;
67798;SDS011;54596;43.216;27.904;2023-12-20T00:52:12;55.60;;;40.50;;
67798;SDS011;54596;43.216;27.904;2023-12-20T00:54:38;57.00;;;40.88;;
67798;SDS011;54596;43.216;27.904;2023-12-20T00:57:04;56.75;;;41.20;;
67798;SDS011;54596;43.216;27.904;2023-12-20T00:59:29;63.00;;;42.35;;
67798;SDS011;54596;43.216;27.904;2023-12-20T01:01:55;60.42;;;41.78;;
67798;SDS011;54596;43.216;27.904;2023-12-20T01:04:20;59.35;;;41.65;;
67798;SDS011;54596;43.216;27.904;2023-12-20T01:06:46;56.53;;;42.83;;
67798;SDS011;54596;43.216;27.904;2023-12-20T01:09:12;60.88;;;39.95;;
67798;SDS011;54596;43.216;27.904;2023-12-20T01:11:37;55.08;;;38.70;;
67798;SDS011;54596;43.216;27.904;2023-12-20T01:14:03;53.05;;;37.35;;
67798;SDS011;54596;43.216;27.904;2023-12-20T01:16:28;49.35;;;35.17;;
67798;SDS011;54596;43.216;27.904;2023-12-20T01:18:54;53.38;;;34.70;;
67798;SDS011;54596;43.216;27.904;2023-12-20T01:21:19;48.75;;;35.97;;
67798;SDS011;54596;43.216;27.904;2023-12-20T01:23:45;50.00;;;34.67;;
67798;SDS011;54596;43.216;27.904;2023-12-20T01:26:10;48.97;;;34.33;;
67798;SDS011;54596;43.216;27.904;2023-12-20T01:28:37;50.20;;;34.05;;
67798;SDS011;54596;43.216;27.904;2023-12-20T01:31:03;46.03;;;33.30;;
67798;SDS011;54596;43.216;27.904;2023-12-20T01:33:29;47.53;;;32.85;;
67798;SDS011;54596;43.216;27.904;2023-12-20T01:35:54;45.42;;;32.33;;
67798;SDS011;54596;43.216;27.904;2023-12-20T01:38:20;42.72;;;31.48;;
67798;SDS011;54596;43.216;27.904;2023-12-20T01:40:45;46.28;;;29.88;;
67798;SDS011;54596;43.216;27.904;2023-12-20T01:43:11;44.97;;;30.38;;
67798;SDS011;54596;43.216;27.904;2023-12-20T01:45:37;46.20;;;31.23;;
67798;SDS011;54596;43.216;27.904;2023-12-20T01:48:03;46.03;;;31.42;;
67798;SDS011;54596;43.216;27.904;2023-12-20T01:50:30;44.58;;;31.10;;
67798;SDS011;54596;43.216;27.904;2023-12-20T01:52:57;46.95;;;32.42;;
67798;SDS011;54596;43.216;27.904;2023-12-20T01:55:26;45.28;;;32.80;;
67798;SDS011;54596;43.216;27.904;2023-12-20T01:57:54;48.50;;;33.33;;
67798;SDS011;54596;43.216;27.904;2023-12-20T02:00:21;51.83;;;35.30;;
67798;SDS011;54596;43.216;27.904;2023-12-20T02:02:52;48.80;;;34.35;;
67798;SDS011;54596;43.216;27.904;2023-12-20T02:05:20;47.17;;;34.63;;
67798;SDS011;54596;43.216;27.904;2023-12-20T02:07:47;51.72;;;34.13;;
67798;SDS011;54596;43.216;27.904;2023-12-20T02:10:13;50.00;;;36.45;;
67798;SDS011;54596;43.216;27.904;2023-12-20T02:12:38;53.13;;;36.65;;
67798;SDS011;54596;43.216;27.904;2023-12-20T02:15:04;55.40;;;37.85;;
67798;SDS011;54596;43.216;27.904;2023-12-20T02:17:31;64.90;;;45.53;;
67798;SDS011;54596;43.216;27.904;2023-12-20T02:19:57;74.13;;;52.72;;
67798;SDS011;54596;43.216;27.904;2023-12-20T02:22:23;71.13;;;54.22;;
67798;SDS011;54596;43.216;27.904;2023-12-20T02:24:48;68.68;;;51.92;;
67798;SDS011;54596;43.216;27.904;2023-12-20T02:27:14;58.60;;;44.50;;
67798;SDS011;54596;43.216;27.904;2023-12-20T02:29:40;54.58;;;38.33;;
67798;SDS011;54596;43.216;27.904;2023-12-20T02:32:06;47.85;;;34.55;;
67798;SDS011;54596;43.216;27.904;2023-12-20T02:34:31;47.85;;;33.65;;
67798;SDS011;54596;43.216;27.904;2023-12-20T02:36:57;46.13;;;34.28;;
67798;SDS011;54596;43.216;27.904;2023-12-20T02:39:22;44.33;;;33.83;;
67798;SDS011;54596;43.216;27.904;2023-12-20T02:41:48;43.97;;;32.78;;
67798;SDS011;54596;43.216;27.904;2023-12-20T02:44:14;49.33;;;34.88;;
67798;SDS011;54596;43.216;27.904;2023-12-20T02:46:39;49.85;;;35.78;;
67798;SDS011;54596;43.216;27.904;2023-12-20T02:49:06;47.53;;;34.92;;
67798;SDS011;54596;43.216;27.904;2023-12-20T02:51:31;47.63;;;35.42;;
67798;SDS011;54596;43.216;27.904;2023-12-20T02:53:57;40.35;;;30.30;;
67798;SDS011;54596;43.216;27.904;2023-12-20T02:56:23;44.30;;;31.20;;
67798;SDS011;54596;43.216;27.904;2023-12-20T02:58:48;42.20;;;30.83;;
67798;SDS011;54596;43.216;27.904;2023-12-20T03:01:14;41.13;;;30.00;;
67798;SDS011;54596;43.216;27.904;2023-12-20T03:03:39;42.45;;;30.30;;
67798;SDS011;54596;43.216;27.904;2023-12-20T03:06:05;45.47;;;32.60;;
67798;SDS011;54596;43.216;27.904;2023-12-20T03:08:30;40.42;;;30.35;;
67798;SDS011;54596;43.216;27.904;2023-12-20T03:10:56;41.80;;;29.10;;
67798;SDS011;54596;43.216;27.904;2023-12-20T03:13:21;36.42;;;25.58;;
67798;SDS011;54596;43.216;27.904;2023-12-20T03:15:47;37.50;;;25.75;;
67798;SDS011;54596;43.216;27.904;2023-12-20T03:18:13;37.92;;;25.25;;
67798;SDS011;54596;43.216;27.904;2023-12-20T03:20:38;37.40;;;26.80;;
67798;SDS011;54596;43.216;27.904;2023-12-20T03:23:06;34.00;;;25.23;;
67798;SDS011;54596;43.216;27.904;2023-12-20T03:25:31;35.83;;;27.38;;
67798;SDS011;54596;43.216;27.904;2023-12-20T03:27:57;35.53;;;26.67;;
67798;SDS011;54596;43.216;27.904;2023-12-20T03:30:22;37.50;;;27.60;;
67798;SDS011;54596;43.216;27.904;2023-12-20T03:32:48;49.67;;;29.42;;
67798;SDS011;54596;43.216;27.904;2023-12-20T03:35:13;39.55;;;28.10;;
67798;SDS011;54596;43.216;27.904;2023-12-20T03:37:39;37.45;;;25.95;;
67798;SDS011;54596;43.216;27.904;2023-12-20T03:40:04;40.47;;;26.80;;
67798;SDS011;54596;43.216;27.904;2023-12-20T03:42:30;40.90;;;28.10;;
67798;SDS011;54596;43.216;27.904;2023-12-20T03:44:56;39.10;;;27.52;;
67798;SDS011;54596;43.216;27.904;2023-12-20T03:47:21;37.28;;;27.38;;
67798;SDS011;54596;43.216;27.904;2023-12-20T03:49:47;43.47;;;33.15;;
67798;SDS011;54596;43.216;27.904;2023-12-20T03:52:13;55.13;;;44.17;;
67798;SDS011;54596;43.216;27.904;2023-12-20T03:54:38;49.17;;;37.20;;
67798;SDS011;54596;43.216;27.904;2023-12-20T03:57:05;51.85;;;39.47;;
67798;SDS011;54596;43.216;27.904;2023-12-20T03:59:34;67.05;;;51.10;;
67798;SDS011;54596;43.216;27.904;2023-12-20T04:02:01;60.90;;;46.70;;
67798;SDS011;54596;43.216;27.904;2023-12-20T04:04:27;54.55;;;40.50;;
67798;SDS011;54596;43.216;27.904;2023-12-20T04:06:52;51.65;;;40.17;;
67798;SDS011;54596;43.216;27.904;2023-12-20T04:12:02;58.63;;;39.78;;
67798;SDS011;54596;43.216;27.904;2023-12-20T04:14:28;46.25;;;33.05;;
67798;SDS011;54596;43.216;27.904;2023-12-20T04:16:54;47.33;;;34.97;;
67798;SDS011;54596;43.216;27.904;2023-12-20T04:19:19;37.90;;;28.23;;
67798;SDS011;54596;43.216;27.904;2023-12-20T04:21:45;39.08;;;28.35;;
67798;SDS011;54596;43.216;27.904;2023-12-20T04:24:11;43.15;;;29.25;;
67798;SDS011;54596;43.216;27.904;2023-12-20T04:26:36;48.53;;;32.53;;
67798;SDS011;54596;43.216;27.904;2023-12-20T04:29:02;50.58;;;37.30;;
67798;SDS011;54596;43.216;27.904;2023-12-20T04:31:27;53.88;;;40.88;;
67798;SDS011;54596;43.216;27.904;2023-12-20T04:33:53;65.82;;;50.60;;
67798;SDS011;54596;43.216;27.904;2023-12-20T04:36:19;86.88;;;64.50;;
67798;SDS011;54596;43.216;27.904;2023-12-20T04:38:44;96.47;;;72.97;;
67798;SDS011;54596;43.216;27.904;2023-12-20T04:41:10;92.75;;;69.28;;
67798;SDS011;54596;43.216;27.904;2023-12-20T04:43:35;79.72;;;58.75;;
67798;SDS011;54596;43.216;27.904;2023-12-20T04:46:01;71.38;;;51.67;;
67798;SDS011;54596;43.216;27.904;2023-12-20T04:48:27;66.32;;;48.55;;
67798;SDS011;54596;43.216;27.904;2023-12-20T04:50:53;66.68;;;47.78;;
67798;SDS011;54596;43.216;27.904;2023-12-20T04:53:18;66.28;;;47.92;;
67798;SDS011;54596;43.216;27.904;2023-12-20T04:55:44;70.43;;;49.45;;
67798;SDS011;54596;43.216;27.904;2023-12-20T04:58:09;65.28;;;47.72;;
67798;SDS011;54596;43.216;27.904;2023-12-20T05:00:35;77.65;;;51.45;;
67798;SDS011;54596;43.216;27.904;2023-12-20T05:03:00;70.47;;;50.92;;
67798;SDS011;54596;43.216;27.904;2023-12-20T05:05:27;76.35;;;55.63;;
67798;SDS011;54596;43.216;27.904;2023-12-20T05:07:53;77.65;;;55.60;;
67798;SDS011;54596;43.216;27.904;2023-12-20T05:10:18;75.75;;;54.58;;
67798;SDS011;54596;43.216;27.904;2023-12-20T05:12:44;77.85;;;54.35;;
67798;SDS011;54596;43.216;27.904;2023-12-20T05:15:10;79.93;;;56.88;;
67798;SDS011;54596;43.216;27.904;2023-12-20T05:17:35;82.60;;;56.80;;
67798;SDS011;54596;43.216;27.904;2023-12-20T05:20:01;78.13;;;53.78;;
67798;SDS011;54596;43.216;27.904;2023-12-20T05:22:27;80.22;;;57.30;;
67798;SDS011;54596;43.216;27.904;2023-12-20T05:24:52;82.25;;;57.90;;
67798;SDS011;54596;43.216;27.904;2023-12-20T05:27:18;87.03;;;60.35;;
67798;SDS011;54596;43.216;27.904;2023-12-20T05:29:45;86.00;;;60.20;;
67798;SDS011;54596;43.216;27.904;2023-12-20T05:32:11;90.35;;;62.28;;
67798;SDS011;54596;43.216;27.904;2023-12-20T05:34:36;106.38;;;64.40;;
67798;SDS011;54596;43.216;27.904;2023-12-20T05:37:02;103.45;;;63.53;;
67798;SDS011;54596;43.216;27.904;2023-12-20T05:39:29;95.60;;;64.25;;
67798;SDS011;54596;43.216;27.904;2023-12-20T05:41:56;104.18;;;65.45;;
67798;SDS011;54596;43.216;27.904;2023-12-20T05:44:21;100.45;;;65.00;;
67798;SDS011;54596;43.216;27.904;2023-12-20T05:46:48;110.15;;;66.88;;
67798;SDS011;54596;43.216;27.904;2023-12-20T05:49:14;171.15;;;70.75;;
67798;SDS011;54596;43.216;27.904;2023-12-20T05:51:40;121.45;;;68.28;;
67798;SDS011;54596;43.216;27.904;2023-12-20T05:54:07;108.78;;;69.07;;
67798;SDS011;54596;43.216;27.904;2023-12-20T05:56:35;105.13;;;65.28;;
67798;SDS011;54596;43.216;27.904;2023-12-20T05:59:01;95.95;;;62.03;;
67798;SDS011;54596;43.216;27.904;2023-12-20T06:01:39;96.07;;;63.90;;
67798;SDS011;54596;43.216;27.904;2023-12-20T06:04:07;124.50;;;63.50;;
67798;SDS011;54596;43.216;27.904;2023-12-20T06:06:33;92.45;;;59.83;;
67798;SDS011;54596;43.216;27.904;2023-12-20T06:08:58;94.35;;;61.17;;
67798;SDS011;54596;43.216;27.904;2023-12-20T06:11:24;88.10;;;59.78;;
67798;SDS011;54596;43.216;27.904;2023-12-20T06:13:51;108.30;;;63.80;;
67798;SDS011;54596;43.216;27.904;2023-12-20T06:16:18;101.78;;;60.40;;
67798;SDS011;54596;43.216;27.904;2023-12-20T06:18:43;101.80;;;63.42;;
67798;SDS011;54596;43.216;27.904;2023-12-20T06:21:09;101.25;;;66.20;;
67798;SDS011;54596;43.216;27.904;2023-12-20T06:23:38;104.53;;;68.38;;
67798;SDS011;54596;43.216;27.904;2023-12-20T06:26:03;103.32;;;69.07;;
67798;SDS011;54596;43.216;27.904;2023-12-20T06:28:29;102.30;;;70.88;;
67798;SDS011;54596;43.216;27.904;2023-12-20T06:30:56;116.60;;;72.43;;
67798;SDS011;54596;43.216;27.904;2023-12-20T06:33:22;112.70;;;74.82;;
67798;SDS011;54596;43.216;27.904;2023-12-20T06:35:49;123.40;;;77.60;;
67798;SDS011;54596;43.216;27.904;2023-12-20T06:38:14;117.82;;;78.72;;
67798;SDS011;54596;43.216;27.904;2023-12-20T06:40:40;112.28;;;75.00;;
67798;SDS011;54596;43.216;27.904;2023-12-20T06:43:06;104.88;;;72.70;;
67798;SDS011;54596;43.216;27.904;2023-12-20T06:45:32;107.65;;;68.60;;
67798;SDS011;54596;43.216;27.904;2023-12-20T06:47:57;88.63;;;56.83;;
67798;SDS011;54596;43.216;27.904;2023-12-20T06:50:23;86.47;;;56.50;;
67798;SDS011;54596;43.216;27.904;2023-12-20T06:52:49;78.65;;;52.20;;
67798;SDS011;54596;43.216;27.904;2023-12-20T06:55:14;75.50;;;49.65;;
67798;SDS011;54596;43.216;27.904;2023-12-20T06:57:40;80.53;;;53.78;;
67798;SDS011;54596;43.216;27.904;2023-12-20T07:00:06;82.63;;;52.30;;
67798;SDS011;54596;43.216;27.904;2023-12-20T07:02:35;83.88;;;52.75;;
67798;SDS011;54596;43.216;27.904;2023-12-20T07:05:00;88.07;;;54.72;;
67798;SDS011;54596;43.216;27.904;2023-12-20T07:07:26;86.45;;;52.00;;
67798;SDS011;54596;43.216;27.904;2023-12-20T07:09:56;77.32;;;48.35;;
67798;SDS011;54596;43.216;27.904;2023-12-20T07:12:22;80.75;;;50.38;;
67798;SDS011;54596;43.216;27.904;2023-12-20T07:14:49;74.55;;;51.55;;
67798;SDS011;54596;43.216;27.904;2023-12-20T07:17:16;76.13;;;49.78;;
67798;SDS011;54596;43.216;27.904;2023-12-20T07:19:41;83.53;;;53.13;;
67798;SDS011;54596;43.216;27.904;2023-12-20T07:22:07;83.68;;;54.58;;
67798;SDS011;54596;43.216;27.904;2023-12-20T07:24:33;91.82;;;57.38;;
67798;SDS011;54596;43.216;27.904;2023-12-20T07:26:59;137.02;;;62.67;;
67798;SDS011;54596;43.216;27.904;2023-12-20T07:29:25;100.95;;;65.70;;
67798;SDS011;54596;43.216;27.904;2023-12-20T07:31:52;106.53;;;66.38;;
67798;SDS011;54596;43.216;27.904;2023-12-20T07:34:19;112.35;;;75.43;;
67798;SDS011;54596;43.216;27.904;2023-12-20T07:36:47;122.70;;;81.85;;
67798;SDS011;54596;43.216;27.904;2023-12-20T07:39:13;124.88;;;83.28;;
67798;SDS011;54596;43.216;27.904;2023-12-20T07:41:42;127.47;;;84.32;;
67798;SDS011;54596;43.216;27.904;2023-12-20T07:44:08;129.73;;;82.40;;
67798;SDS011;54596;43.216;27.904;2023-12-20T07:46:33;123.57;;;78.55;;
67798;SDS011;54596;43.216;27.904;2023-12-20T07:51:36;130.18;;;79.90;;
67798;SDS011;54596;43.216;27.904;2023-12-20T07:54:02;130.75;;;80.35;;
67798;SDS011;54596;43.216;27.904;2023-12-20T07:56:48;119.35;;;72.22;;
67798;SDS011;54596;43.216;27.904;2023-12-20T07:59:18;116.53;;;71.57;;
67798;SDS011;54596;43.216;27.904;2023-12-20T08:11:47;35.60;;;19.15;;
67798;SDS011;54596;43.216;27.904;2023-12-20T08:14:13;133.43;;;63.38;;
67798;SDS011;54596;43.216;27.904;2023-12-20T08:16:39;37.33;;;18.15;;
67798;SDS011;54596;43.216;27.904;2023-12-20T08:22:25;35.13;;;15.43;;
67798;SDS011;54596;43.216;27.904;2023-12-20T08:24:54;47.03;;;19.50;;
67798;SDS011;54596;43.216;27.904;2023-12-20T08:27:19;30.80;;;15.13;;
67798;SDS011;54596;43.216;27.904;2023-12-20T08:29:52;51.72;;;20.48;;
67798;SDS011;54596;43.216;27.904;2023-12-20T08:32:20;29.33;;;12.57;;
67798;SDS011;54596;43.216;27.904;2023-12-20T08:44:49;20.67;;;8.00;;
67798;SDS011;54596;43.216;27.904;2023-12-20T08:47:15;21.48;;;10.27;;
67798;SDS011;54596;43.216;27.904;2023-12-20T08:49:41;21.25;;;7.40;;
67798;SDS011;54596;43.216;27.904;2023-12-20T08:52:06;11.77;;;5.75;;
67798;SDS011;54596;43.216;27.904;2023-12-20T08:54:32;11.32;;;5.22;;
67798;SDS011;54596;43.216;27.904;2023-12-20T08:56:57;15.77;;;6.80;;
67798;SDS011;54596;43.216;27.904;2023-12-20T08:59:24;13.70;;;7.10;;
67798;SDS011;54596;43.216;27.904;2023-12-20T09:01:50;16.98;;;7.65;;
67798;SDS011;54596;43.216;27.904;2023-12-20T09:04:19;16.42;;;6.80;;
67798;SDS011;54596;43.216;27.904;2023-12-20T09:06:45;20.55;;;8.20;;
67798;SDS011;54596;43.216;27.904;2023-12-20T09:09:11;18.48;;;7.85;;
67798;SDS011;54596;43.216;27.904;2023-12-20T09:11:38;22.90;;;8.70;;
67798;SDS011;54596;43.216;27.904;2023-12-20T09:14:04;22.98;;;9.32;;
67798;SDS011;54596;43.216;27.904;2023-12-20T09:16:30;16.95;;;8.18;;
67798;SDS011;54596;43.216;27.904;2023-12-20T09:18:56;15.52;;;6.90;;
67798;SDS011;54596;43.216;27.904;2023-12-20T09:21:23;18.60;;;7.30;;
67798;SDS011;54596;43.216;27.904;2023-12-20T09:23:49;14.10;;;6.60;;
67798;SDS011;54596;43.216;27.904;2023-12-20T09:26:14;15.25;;;7.32;;
67798;SDS011;54596;43.216;27.904;2023-12-20T09:28:41;18.20;;;8.93;;
67798;SDS011;54596;43.216;27.904;2023-12-20T09:31:07;17.63;;;8.68;;
67798;SDS011;54596;43.216;27.904;2023-12-20T09:33:33;19.27;;;8.10;;
67798;SDS011;54596;43.216;27.904;2023-12-20T09:35:59;21.23;;;9.70;;
67798;SDS011;54596;43.216;27.904;2023-12-20T09:38:24;17.30;;;7.45;;
67798;SDS011;54596;43.216;27.904;2023-12-20T09:40:51;17.52;;;8.00;;
67798;SDS011;54596;43.216;27.904;2023-12-20T09:43:18;16.63;;;7.55;;
67798;SDS011;54596;43.216;27.904;2023-12-20T09:45:48;21.83;;;7.57;;
67798;SDS011;54596;43.216;27.904;2023-12-20T09:48:14;23.67;;;11.93;;
67798;SDS011;54596;43.216;27.904;2023-12-20T09:50:44;24.25;;;11.13;;
67798;SDS011;54596;43.216;27.904;2023-12-20T09:53:14;15.40;;;6.70;;
67798;SDS011;54596;43.216;27.904;2023-12-20T09:55:42;15.88;;;6.88;;
67798;SDS011;54596;43.216;27.904;2023-12-20T09:58:08;14.05;;;7.05;;
67798;SDS011;54596;43.216;27.904;2023-12-20T10:00:37;16.13;;;8.07;;
67798;SDS011;54596;43.216;27.904;2023-12-20T10:03:04;16.45;;;8.10;;
67798;SDS011;54596;43.216;27.904;2023-12-20T10:05:31;17.33;;;8.32;;
67798;SDS011;54596;43.216;27.904;2023-12-20T10:07:58;12.68;;;7.43;;
67798;SDS011;54596;43.216;27.904;2023-12-20T10:10:26;18.00;;;7.68;;
67798;SDS011;54596;43.216;27.904;2023-12-20T10:13:09;13.57;;;6.90;;
67798;SDS011;54596;43.216;27.904;2023-12-20T10:15:36;17.75;;;7.45;;
67798;SDS011;54596;43.216;27.904;2023-12-20T10:18:02;12.18;;;6.40;;
67798;SDS011;54596;43.216;27.904;2023-12-20T10:20:29;15.15;;;6.03;;
67798;SDS011;54596;43.216;27.904;2023-12-20T10:22:56;13.55;;;6.68;;
67798;SDS011;54596;43.216;27.904;2023-12-20T10:25:26;15.25;;;7.38;;
67798;SDS011;54596;43.216;27.904;2023-12-20T10:30:37;12.23;;;5.97;;
67798;SDS011;54596;43.216;27.904;2023-12-20T10:33:07;18.95;;;6.90;;
67798;SDS011;54596;43.216;27.904;2023-12-20T10:35:38;13.63;;;6.90;;
67798;SDS011;54596;43.216;27.904;2023-12-20T10:38:05;12.90;;;6.78;;
67798;SDS011;54596;43.216;27.904;2023-12-20T10:40:36;13.85;;;6.90;;
67798;SDS011;54596;43.216;27.904;2023-12-20T10:43:03;13.32;;;7.22;;
67798;SDS011;54596;43.216;27.904;2023-12-20T10:45:29;15.57;;;7.90;;
67798;SDS011;54596;43.216;27.904;2023-12-20T10:47:55;13.10;;;7.45;;
67798;SDS011;54596;43.216;27.904;2023-12-20T10:50:24;14.43;;;7.82;;
67798;SDS011;54596;43.216;27.904;2023-12-20T10:52:51;14.93;;;8.05;;
67798;SDS011;54596;43.216;27.904;2023-12-20T10:55:21;15.73;;;8.13;;
67798;SDS011;54596;43.216;27.904;2023-12-20T10:57:49;13.18;;;7.32;;
67798;SDS011;54596;43.216;27.904;2023-12-20T11:00:19;14.10;;;7.60;;
67798;SDS011;54596;43.216;27.904;2023-12-20T11:02:46;14.77;;;7.28;;
67798;SDS011;54596;43.216;27.904;2023-12-20T11:07:47;14.60;;;7.05;;
67798;SDS011;54596;43.216;27.904;2023-12-20T11:10:37;14.68;;;8.15;;
67798;SDS011;54596;43.216;27.904;2023-12-20T11:13:40;12.25;;;6.20;;
67798;SDS011;54596;43.216;27.904;2023-12-20T11:16:13;13.38;;;6.22;;
67798;SDS011;54596;43.216;27.904;2023-12-20T11:18:40;14.18;;;6.40;;
67798;SDS011;54596;43.216;27.904;2023-12-20T11:21:07;16.00;;;6.95;;
67798;SDS011;54596;43.216;27.904;2023-12-20T11:23:33;11.45;;;5.80;;
67798;SDS011;54596;43.216;27.904;2023-12-20T11:25:59;14.57;;;6.50;;
67798;SDS011;54596;43.216;27.904;2023-12-20T11:28:27;13.82;;;6.90;;
67798;SDS011;54596;43.216;27.904;2023-12-20T11:30:56;13.85;;;6.97;;
67798;SDS011;54596;43.216;27.904;2023-12-20T11:33:26;13.38;;;7.68;;
67798;SDS011;54596;43.216;27.904;2023-12-20T11:35:56;17.45;;;8.05;;
67798;SDS011;54596;43.216;27.904;2023-12-20T11:38:24;16.08;;;8.35;;
67798;SDS011;54596;43.216;27.904;2023-12-20T11:40:50;14.48;;;8.00;;
67798;SDS011;54596;43.216;27.904;2023-12-20T11:46:19;15.27;;;9.88;;
67798;SDS011;54596;43.216;27.904;2023-12-20T11:48:45;18.23;;;10.02;;
67798;SDS011;54596;43.216;27.904;2023-12-20T11:51:13;15.98;;;9.57;;
67798;SDS011;54596;43.216;27.904;2023-12-20T11:53:39;21.52;;;10.85;;
67798;SDS011;54596;43.216;27.904;2023-12-20T11:56:06;18.27;;;10.43;;
67798;SDS011;54596;43.216;27.904;2023-12-20T11:58:32;17.08;;;10.25;;
67798;SDS011;54596;43.216;27.904;2023-12-20T12:00:59;19.88;;;11.52;;
67798;SDS011;54596;43.216;27.904;2023-12-20T12:03:25;18.23;;;10.70;;
67798;SDS011;54596;43.216;27.904;2023-12-20T12:05:51;15.30;;;9.80;;
67798;SDS011;54596;43.216;27.904;2023-12-20T12:08:16;17.48;;;9.95;;
67798;SDS011;54596;43.216;27.904;2023-12-20T12:10:43;17.60;;;10.38;;
67798;SDS011;54596;43.216;27.904;2023-12-20T12:13:10;16.50;;;9.23;;
67798;SDS011;54596;43.216;27.904;2023-12-20T12:15:36;15.38;;;9.68;;
67798;SDS011;54596;43.216;27.904;2023-12-20T12:18:02;14.13;;;9.38;;
67798;SDS011;54596;43.216;27.904;2023-12-20T12:20:30;18.67;;;10.27;;
67798;SDS011;54596;43.216;27.904;2023-12-20T12:25:31;18.25;;;11.45;;
67798;SDS011;54596;43.216;27.904;2023-12-20T12:27:59;19.23;;;11.50;;
67798;SDS011;54596;43.216;27.904;2023-12-20T12:30:25;22.20;;;12.25;;
67798;SDS011;54596;43.216;27.904;2023-12-20T12:32:52;20.13;;;12.02;;
67798;SDS011;54596;43.216;27.904;2023-12-20T12:35:18;19.10;;;12.93;;
67798;SDS011;54596;43.216;27.904;2023-12-20T12:37:44;20.38;;;12.75;;
67798;SDS011;54596;43.216;27.904;2023-12-20T12:40:10;22.65;;;14.07;;
67798;SDS011;54596;43.216;27.904;2023-12-20T12:42:38;22.65;;;15.07;;
67798;SDS011;54596;43.216;27.904;2023-12-20T12:45:05;22.23;;;14.63;;
67798;SDS011;54596;43.216;27.904;2023-12-20T12:47:31;22.92;;;14.68;;
67798;SDS011;54596;43.216;27.904;2023-12-20T12:49:57;21.60;;;14.18;;
67798;SDS011;54596;43.216;27.904;2023-12-20T12:52:23;20.95;;;14.27;;
67798;SDS011;54596;43.216;27.904;2023-12-20T12:54:49;22.23;;;15.10;;
67798;SDS011;54596;43.216;27.904;2023-12-20T12:57:14;21.45;;;14.40;;
67798;SDS011;54596;43.216;27.904;2023-12-20T12:59:41;22.65;;;14.77;;
67798;SDS011;54596;43.216;27.904;2023-12-20T13:02:07;21.02;;;13.68;;
67798;SDS011;54596;43.216;27.904;2023-12-20T13:04:33;21.42;;;14.55;;
67798;SDS011;54596;43.216;27.904;2023-12-20T13:06:59;23.27;;;14.77;;
67798;SDS011;54596;43.216;27.904;2023-12-20T13:09:25;24.75;;;16.77;;
67798;SDS011;54596;43.216;27.904;2023-12-20T13:11:50;25.90;;;15.95;;
67798;SDS011;54596;43.216;27.904;2023-12-20T13:14:16;26.25;;;16.85;;
67798;SDS011;54596;43.216;27.904;2023-12-20T13:16:42;26.55;;;16.92;;
67798;SDS011;54596;43.216;27.904;2023-12-20T13:19:07;28.10;;;17.45;;
67798;SDS011;54596;43.216;27.904;2023-12-20T13:21:35;26.63;;;16.80;;
67798;SDS011;54596;43.216;27.904;2023-12-20T13:24:00;29.08;;;18.27;;
67798;SDS011;54596;43.216;27.904;2023-12-20T13:26:26;26.25;;;17.17;;
67798;SDS011;54596;43.216;27.904;2023-12-20T13:28:52;26.23;;;18.20;;
67798;SDS011;54596;43.216;27.904;2023-12-20T13:31:19;26.95;;;17.30;;
67798;SDS011;54596;43.216;27.904;2023-12-20T13:33:45;25.55;;;16.77;;
67798;SDS011;54596;43.216;27.904;2023-12-20T13:36:11;26.38;;;17.58;;
67798;SDS011;54596;43.216;27.904;2023-12-20T13:38:37;26.08;;;16.98;;
67798;SDS011;54596;43.216;27.904;2023-12-20T13:41:02;28.25;;;17.10;;
67798;SDS011;54596;43.216;27.904;2023-12-20T13:43:29;33.13;;;18.10;;
67798;SDS011;54596;43.216;27.904;2023-12-20T13:45:55;25.65;;;17.60;;
67798;SDS011;54596;43.216;27.904;2023-12-20T13:48:21;27.95;;;18.02;;
67798;SDS011;54596;43.216;27.904;2023-12-20T13:50:48;30.00;;;18.17;;
67798;SDS011;54596;43.216;27.904;2023-12-20T13:53:13;27.95;;;18.05;;
67798;SDS011;54596;43.216;27.904;2023-12-20T13:55:39;29.83;;;18.02;;
67798;SDS011;54596;43.216;27.904;2023-12-20T13:58:09;31.63;;;18.02;;
67798;SDS011;54596;43.216;27.904;2023-12-20T14:00:36;32.58;;;19.08;;
67798;SDS011;54596;43.216;27.904;2023-12-20T14:03:03;33.40;;;19.65;;
67798;SDS011;54596;43.216;27.904;2023-12-20T14:05:29;35.20;;;21.98;;
67798;SDS011;54596;43.216;27.904;2023-12-20T14:07:55;31.92;;;19.58;;
67798;SDS011;54596;43.216;27.904;2023-12-20T14:10:25;37.13;;;20.85;;
67798;SDS011;54596;43.216;27.904;2023-12-20T14:12:54;37.42;;;25.48;;
67798;SDS011;54596;43.216;27.904;2023-12-20T14:15:21;32.28;;;21.58;;
67798;SDS011;54596;43.216;27.904;2023-12-20T14:17:50;29.80;;;21.25;;
67798;SDS011;54596;43.216;27.904;2023-12-20T14:20:16;33.63;;;21.08;;
67798;SDS011;54596;43.216;27.904;2023-12-20T14:22:42;34.67;;;21.98;;
67798;SDS011;54596;43.216;27.904;2023-12-20T14:25:13;30.70;;;19.83;;
67798;SDS011;54596;43.216;27.904;2023-12-20T14:27:40;32.47;;;21.23;;
67798;SDS011;54596;43.216;27.904;2023-12-20T14:33:30;36.60;;;23.23;;
67798;SDS011;54596;43.216;27.904;2023-12-20T14:35:55;32.67;;;22.63;;
67798;SDS011;54596;43.216;27.904;2023-12-20T14:38:21;31.42;;;22.88;;
67798;SDS011;54596;43.216;27.904;2023-12-20T14:40:46;31.88;;;22.88;;
67798;SDS011;54596;43.216;27.904;2023-12-20T14:43:12;33.63;;;23.80;;
67798;SDS011;54596;43.216;27.904;2023-12-20T14:45:39;37.97;;;23.88;;
67798;SDS011;54596;43.216;27.904;2023-12-20T14:50:58;30.90;;;22.27;;
67798;SDS011;54596;43.216;27.904;2023-12-20T14:53:24;32.75;;;22.20;;